sensor_id;sensor_type;location;lat;lon;timestamp;P1;durP1;ratioP1;P2;durP2;ratioP2
10641;SDS011;5369;49.586;8.646;2023-02-24T00:00:55;28.97;;;20.17;;
10641;SDS011;5369;49.586;8.646;2023-02-24T00:03:26;30.47;;;20.37;;
10641;SDS011;5369;49.586;8.646;2023-02-24T00:05:52;34.17;;;21.73;;
10641;SDS011;5369;49.586;8.646;2023-02-24T00:08:18;34.70;;;21.90;;
10641;SDS011;5369;49.586;8.646;2023-02-24T00:10:44;33.67;;;21.50;;
10641;SDS011;5369;49.586;8.646;2023-02-24T00:13:11;35.20;;;21.20;;
10641;SDS011;5369;49.586;8.646;2023-02-24T00:15:38;35.40;;;21.97;;
10641;SDS011;5369;49.586;8.646;2023-02-24T00:18:04;35.83;;;22.10;;
10641;SDS011;5369;49.586;8.646;2023-02-24T00:20:31;33.63;;;20.67;;
10641;SDS011;5369;49.586;8.646;2023-02-24T00:22:58;38.27;;;22.47;;
10641;SDS011;5369;49.586;8.646;2023-02-24T00:25:27;36.93;;;22.47;;
10641;SDS011;5369;49.586;8.646;2023-02-24T00:27:53;34.80;;;21.20;;
10641;SDS011;5369;49.586;8.646;2023-02-24T00:30:20;35.87;;;21.43;;
10641;SDS011;5369;49.586;8.646;2023-02-24T00:32:48;34.93;;;21.63;;
10641;SDS011;5369;49.586;8.646;2023-02-24T00:35:14;36.73;;;22.17;;
10641;SDS011;5369;49.586;8.646;2023-02-24T00:37:41;35.03;;;21.83;;
10641;SDS011;5369;49.586;8.646;2023-02-24T00:40:07;36.83;;;22.73;;
10641;SDS011;5369;49.586;8.646;2023-02-24T00:42:36;34.90;;;20.70;;
10641;SDS011;5369;49.586;8.646;2023-02-24T00:45:04;33.83;;;21.03;;
10641;SDS011;5369;49.586;8.646;2023-02-24T00:47:37;33.20;;;20.40;;
10641;SDS011;5369;49.586;8.646;2023-02-24T00:50:04;37.23;;;21.13;;
10641;SDS011;5369;49.586;8.646;2023-02-24T00:52:31;38.80;;;22.23;;
10641;SDS011;5369;49.586;8.646;2023-02-24T00:54:57;38.37;;;22.57;;
10641;SDS011;5369;49.586;8.646;2023-02-24T00:57:27;36.83;;;22.10;;
10641;SDS011;5369;49.586;8.646;2023-02-24T00:59:53;35.83;;;22.30;;
10641;SDS011;5369;49.586;8.646;2023-02-24T01:02:22;36.17;;;21.27;;
10641;SDS011;5369;49.586;8.646;2023-02-24T01:04:48;36.67;;;22.20;;
10641;SDS011;5369;49.586;8.646;2023-02-24T01:07:15;37.63;;;21.70;;
10641;SDS011;5369;49.586;8.646;2023-02-24T01:09:41;37.33;;;21.90;;
10641;SDS011;5369;49.586;8.646;2023-02-24T01:12:09;35.57;;;22.10;;
10641;SDS011;5369;49.586;8.646;2023-02-24T01:14:54;36.73;;;22.47;;
10641;SDS011;5369;49.586;8.646;2023-02-24T01:17:21;41.57;;;23.50;;
10641;SDS011;5369;49.586;8.646;2023-02-24T01:19:47;38.73;;;22.23;;
10641;SDS011;5369;49.586;8.646;2023-02-24T01:22:14;37.77;;;22.30;;
10641;SDS011;5369;49.586;8.646;2023-02-24T01:24:42;36.97;;;22.40;;
10641;SDS011;5369;49.586;8.646;2023-02-24T01:27:09;37.07;;;21.90;;
10641;SDS011;5369;49.586;8.646;2023-02-24T01:29:36;37.63;;;21.67;;
10641;SDS011;5369;49.586;8.646;2023-02-24T01:32:06;38.57;;;22.60;;
10641;SDS011;5369;49.586;8.646;2023-02-24T01:34:39;40.87;;;23.07;;
10641;SDS011;5369;49.586;8.646;2023-02-24T01:37:06;37.53;;;21.73;;
10641;SDS011;5369;49.586;8.646;2023-02-24T01:39:33;39.37;;;23.27;;
10641;SDS011;5369;49.586;8.646;2023-02-24T01:42:00;36.97;;;22.00;;
10641;SDS011;5369;49.586;8.646;2023-02-24T01:46:57;38.20;;;22.50;;
10641;SDS011;5369;49.586;8.646;2023-02-24T01:49:44;36.60;;;21.93;;
10641;SDS011;5369;49.586;8.646;2023-02-24T01:52:19;38.57;;;22.37;;
10641;SDS011;5369;49.586;8.646;2023-02-24T01:54:49;37.90;;;21.67;;
10641;SDS011;5369;49.586;8.646;2023-02-24T01:57:19;38.67;;;22.57;;
10641;SDS011;5369;49.586;8.646;2023-02-24T01:59:49;34.90;;;20.83;;
10641;SDS011;5369;49.586;8.646;2023-02-24T02:02:16;38.00;;;22.83;;
10641;SDS011;5369;49.586;8.646;2023-02-24T02:04:48;37.17;;;21.00;;
10641;SDS011;5369;49.586;8.646;2023-02-24T02:07:16;38.37;;;22.10;;
10641;SDS011;5369;49.586;8.646;2023-02-24T02:09:43;38.47;;;21.87;;
10641;SDS011;5369;49.586;8.646;2023-02-24T02:12:11;38.67;;;22.67;;
10641;SDS011;5369;49.586;8.646;2023-02-24T02:14:38;34.60;;;20.57;;
10641;SDS011;5369;49.586;8.646;2023-02-24T02:17:25;40.43;;;22.97;;
10641;SDS011;5369;49.586;8.646;2023-02-24T02:43:24;42.77;;;24.70;;
10641;SDS011;5369;49.586;8.646;2023-02-24T02:45:57;41.90;;;23.83;;
10641;SDS011;5369;49.586;8.646;2023-02-24T02:48:30;44.93;;;24.07;;
10641;SDS011;5369;49.586;8.646;2023-02-24T02:51:03;42.63;;;23.60;;
10641;SDS011;5369;49.586;8.646;2023-02-24T02:53:35;39.70;;;22.50;;
10641;SDS011;5369;49.586;8.646;2023-02-24T02:56:07;39.87;;;22.33;;
10641;SDS011;5369;49.586;8.646;2023-02-24T02:58:36;37.37;;;20.53;;
10641;SDS011;5369;49.586;8.646;2023-02-24T03:01:04;41.10;;;21.87;;
10641;SDS011;5369;49.586;8.646;2023-02-24T03:06:09;42.37;;;21.47;;
10641;SDS011;5369;49.586;8.646;2023-02-24T03:08:36;37.67;;;19.93;;
10641;SDS011;5369;49.586;8.646;2023-02-24T03:11:06;41.37;;;20.83;;
10641;SDS011;5369;49.586;8.646;2023-02-24T03:13:36;38.87;;;19.93;;
10641;SDS011;5369;49.586;8.646;2023-02-24T03:16:05;39.27;;;20.37;;
10641;SDS011;5369;49.586;8.646;2023-02-24T03:18:38;36.37;;;19.93;;
10641;SDS011;5369;49.586;8.646;2023-02-24T03:21:09;36.97;;;19.50;;
10641;SDS011;5369;49.586;8.646;2023-02-24T03:23:45;40.07;;;20.77;;
10641;SDS011;5369;49.586;8.646;2023-02-24T03:27:02;38.27;;;19.23;;
10641;SDS011;5369;49.586;8.646;2023-02-24T03:29:05;38.87;;;19.67;;
10641;SDS011;5369;49.586;8.646;2023-02-24T03:31:39;39.17;;;20.90;;
10641;SDS011;5369;49.586;8.646;2023-02-24T03:34:09;35.83;;;18.23;;
10641;SDS011;5369;49.586;8.646;2023-02-24T03:36:37;34.47;;;17.43;;
10641;SDS011;5369;49.586;8.646;2023-02-24T03:39:04;37.13;;;18.93;;
10641;SDS011;5369;49.586;8.646;2023-02-24T03:41:39;37.87;;;19.60;;
10641;SDS011;5369;49.586;8.646;2023-02-24T03:44:07;33.67;;;17.10;;
10641;SDS011;5369;49.586;8.646;2023-02-24T03:46:35;37.00;;;18.87;;
10641;SDS011;5369;49.586;8.646;2023-02-24T03:49:06;35.70;;;18.63;;
10641;SDS011;5369;49.586;8.646;2023-02-24T03:51:43;39.97;;;20.53;;
10641;SDS011;5369;49.586;8.646;2023-02-24T03:54:20;36.60;;;19.50;;
10641;SDS011;5369;49.586;8.646;2023-02-24T04:01:55;35.57;;;18.80;;
10641;SDS011;5369;49.586;8.646;2023-02-24T04:07:01;34.27;;;18.27;;
10641;SDS011;5369;49.586;8.646;2023-02-24T04:12:07;38.40;;;18.77;;
10641;SDS011;5369;49.586;8.646;2023-02-24T04:14:41;37.30;;;19.30;;
10641;SDS011;5369;49.586;8.646;2023-02-24T04:17:12;40.33;;;19.77;;
10641;SDS011;5369;49.586;8.646;2023-02-24T04:19:45;38.13;;;19.97;;
10641;SDS011;5369;49.586;8.646;2023-02-24T04:22:16;37.53;;;19.67;;
10641;SDS011;5369;49.586;8.646;2023-02-24T04:24:45;35.17;;;18.37;;
10641;SDS011;5369;49.586;8.646;2023-02-24T04:27:13;34.27;;;18.40;;
10641;SDS011;5369;49.586;8.646;2023-02-24T04:29:44;41.47;;;19.77;;
10641;SDS011;5369;49.586;8.646;2023-02-24T04:32:15;36.63;;;17.73;;
10641;SDS011;5369;49.586;8.646;2023-02-24T04:34:43;35.80;;;18.23;;
10641;SDS011;5369;49.586;8.646;2023-02-24T04:37:10;36.23;;;18.83;;
10641;SDS011;5369;49.586;8.646;2023-02-24T04:39:36;38.33;;;20.10;;
10641;SDS011;5369;49.586;8.646;2023-02-24T04:42:07;37.83;;;19.30;;
10641;SDS011;5369;49.586;8.646;2023-02-24T04:44:33;38.87;;;20.30;;
10641;SDS011;5369;49.586;8.646;2023-02-24T04:47:00;42.93;;;20.97;;
10641;SDS011;5369;49.586;8.646;2023-02-24T04:49:27;39.30;;;22.05;;
10641;SDS011;5369;49.586;8.646;2023-02-24T04:51:54;36.73;;;20.43;;
10641;SDS011;5369;49.586;8.646;2023-02-24T04:54:21;40.00;;;20.47;;
10641;SDS011;5369;49.586;8.646;2023-02-24T04:56:49;41.30;;;20.97;;
10641;SDS011;5369;49.586;8.646;2023-02-24T04:59:19;39.50;;;19.77;;
10641;SDS011;5369;49.586;8.646;2023-02-24T05:01:46;40.87;;;21.13;;
10641;SDS011;5369;49.586;8.646;2023-02-24T05:04:15;41.57;;;20.33;;
10641;SDS011;5369;49.586;8.646;2023-02-24T05:06:42;41.43;;;20.47;;
10641;SDS011;5369;49.586;8.646;2023-02-24T05:09:15;38.13;;;19.53;;
10641;SDS011;5369;49.586;8.646;2023-02-24T05:11:43;38.80;;;19.27;;
10641;SDS011;5369;49.586;8.646;2023-02-24T05:14:09;39.53;;;22.80;;
10641;SDS011;5369;49.586;8.646;2023-02-24T05:16:43;40.97;;;20.20;;
10641;SDS011;5369;49.586;8.646;2023-02-24T05:19:11;37.80;;;22.73;;
10641;SDS011;5369;49.586;8.646;2023-02-24T05:21:56;35.87;;;19.17;;
10641;SDS011;5369;49.586;8.646;2023-02-24T05:24:26;35.93;;;18.73;;
10641;SDS011;5369;49.586;8.646;2023-02-24T05:26:54;35.93;;;19.07;;
10641;SDS011;5369;49.586;8.646;2023-02-24T05:29:27;39.17;;;18.83;;
10641;SDS011;5369;49.586;8.646;2023-02-24T05:31:55;34.17;;;17.50;;
10641;SDS011;5369;49.586;8.646;2023-02-24T05:34:26;39.37;;;20.27;;
10641;SDS011;5369;49.586;8.646;2023-02-24T05:36:55;35.27;;;17.87;;
10641;SDS011;5369;49.586;8.646;2023-02-24T05:39:21;33.40;;;18.10;;
10641;SDS011;5369;49.586;8.646;2023-02-24T05:41:50;34.60;;;17.70;;
10641;SDS011;5369;49.586;8.646;2023-02-24T05:44:19;39.00;;;18.90;;
10641;SDS011;5369;49.586;8.646;2023-02-24T05:46:48;40.75;;;21.92;;
10641;SDS011;5369;49.586;8.646;2023-02-24T05:49:19;33.13;;;18.60;;
10641;SDS011;5369;49.586;8.646;2023-02-24T05:51:51;40.27;;;20.70;;
10641;SDS011;5369;49.586;8.646;2023-02-24T05:54:25;33.87;;;18.70;;
10641;SDS011;5369;49.586;8.646;2023-02-24T05:56:54;37.60;;;19.23;;
10641;SDS011;5369;49.586;8.646;2023-02-24T05:59:24;38.67;;;19.10;;
10641;SDS011;5369;49.586;8.646;2023-02-24T06:01:56;36.87;;;19.10;;
10641;SDS011;5369;49.586;8.646;2023-02-24T06:04:24;33.03;;;17.77;;
10641;SDS011;5369;49.586;8.646;2023-02-24T06:09:38;39.70;;;19.33;;
10641;SDS011;5369;49.586;8.646;2023-02-24T06:12:07;37.57;;;19.67;;
10641;SDS011;5369;49.586;8.646;2023-02-24T06:14:34;40.80;;;20.33;;
10641;SDS011;5369;49.586;8.646;2023-02-24T06:17:00;41.00;;;20.20;;
10641;SDS011;5369;49.586;8.646;2023-02-24T06:19:29;40.67;;;20.70;;
10641;SDS011;5369;49.586;8.646;2023-02-24T06:21:59;40.67;;;20.53;;
10641;SDS011;5369;49.586;8.646;2023-02-24T06:24:26;36.23;;;19.17;;
10641;SDS011;5369;49.586;8.646;2023-02-24T06:26:53;38.80;;;20.43;;
10641;SDS011;5369;49.586;8.646;2023-02-24T06:29:27;36.43;;;18.93;;
10641;SDS011;5369;49.586;8.646;2023-02-24T06:31:54;41.07;;;20.33;;
10641;SDS011;5369;49.586;8.646;2023-02-24T06:34:22;39.30;;;20.10;;
10641;SDS011;5369;49.586;8.646;2023-02-24T06:36:50;35.77;;;17.90;;
10641;SDS011;5369;49.586;8.646;2023-02-24T06:39:17;37.43;;;19.47;;
10641;SDS011;5369;49.586;8.646;2023-02-24T06:41:43;38.10;;;19.97;;
10641;SDS011;5369;49.586;8.646;2023-02-24T06:44:09;40.40;;;20.27;;
10641;SDS011;5369;49.586;8.646;2023-02-24T06:46:36;38.10;;;19.00;;
10641;SDS011;5369;49.586;8.646;2023-02-24T06:49:02;41.10;;;19.77;;
10641;SDS011;5369;49.586;8.646;2023-02-24T06:51:28;38.67;;;19.90;;
10641;SDS011;5369;49.586;8.646;2023-02-24T06:53:57;39.10;;;19.53;;
10641;SDS011;5369;49.586;8.646;2023-02-24T06:56:24;38.33;;;19.10;;
10641;SDS011;5369;49.586;8.646;2023-02-24T06:58:52;40.43;;;19.17;;
10641;SDS011;5369;49.586;8.646;2023-02-24T07:01:20;37.93;;;20.70;;
10641;SDS011;5369;49.586;8.646;2023-02-24T07:03:50;40.73;;;21.13;;
10641;SDS011;5369;49.586;8.646;2023-02-24T07:06:28;37.53;;;19.00;;
10641;SDS011;5369;49.586;8.646;2023-02-24T07:08:56;36.23;;;18.97;;
10641;SDS011;5369;49.586;8.646;2023-02-24T07:11:22;41.33;;;20.37;;
10641;SDS011;5369;49.586;8.646;2023-02-24T07:13:49;41.20;;;20.30;;
10641;SDS011;5369;49.586;8.646;2023-02-24T07:16:18;39.20;;;19.83;;
10641;SDS011;5369;49.586;8.646;2023-02-24T07:18:44;39.40;;;20.13;;
10641;SDS011;5369;49.586;8.646;2023-02-24T07:21:15;38.53;;;19.40;;
10641;SDS011;5369;49.586;8.646;2023-02-24T07:23:43;38.37;;;20.00;;
10641;SDS011;5369;49.586;8.646;2023-02-24T07:26:10;39.30;;;19.43;;
10641;SDS011;5369;49.586;8.646;2023-02-24T07:28:41;39.53;;;19.70;;
10641;SDS011;5369;49.586;8.646;2023-02-24T07:31:08;38.00;;;19.23;;
10641;SDS011;5369;49.586;8.646;2023-02-24T07:33:36;42.97;;;20.37;;
10641;SDS011;5369;49.586;8.646;2023-02-24T07:36:04;41.40;;;19.77;;
10641;SDS011;5369;49.586;8.646;2023-02-24T07:38:33;43.50;;;21.10;;
10641;SDS011;5369;49.586;8.646;2023-02-24T07:41:00;41.80;;;20.60;;
10641;SDS011;5369;49.586;8.646;2023-02-24T07:43:26;39.20;;;20.60;;
10641;SDS011;5369;49.586;8.646;2023-02-24T07:45:53;42.33;;;22.13;;
10641;SDS011;5369;49.586;8.646;2023-02-24T07:48:19;43.50;;;21.70;;
10641;SDS011;5369;49.586;8.646;2023-02-24T07:50:45;42.07;;;22.00;;
10641;SDS011;5369;49.586;8.646;2023-02-24T07:53:12;43.07;;;21.63;;
10641;SDS011;5369;49.586;8.646;2023-02-24T07:55:40;41.77;;;21.80;;
10641;SDS011;5369;49.586;8.646;2023-02-24T07:58:06;37.17;;;20.77;;
10641;SDS011;5369;49.586;8.646;2023-02-24T08:00:34;40.27;;;20.67;;
10641;SDS011;5369;49.586;8.646;2023-02-24T08:03:14;41.13;;;21.70;;
10641;SDS011;5369;49.586;8.646;2023-02-24T08:05:41;44.57;;;21.87;;
10641;SDS011;5369;49.586;8.646;2023-02-24T08:08:10;39.67;;;21.73;;
10641;SDS011;5369;49.586;8.646;2023-02-24T08:10:38;38.77;;;20.50;;
10641;SDS011;5369;49.586;8.646;2023-02-24T08:13:05;44.70;;;22.13;;
10641;SDS011;5369;49.586;8.646;2023-02-24T08:15:31;42.97;;;21.03;;
10641;SDS011;5369;49.586;8.646;2023-02-24T08:18:00;42.00;;;21.43;;
10641;SDS011;5369;49.586;8.646;2023-02-24T08:20:27;44.43;;;22.70;;
10641;SDS011;5369;49.586;8.646;2023-02-24T08:23:00;40.37;;;21.83;;
10641;SDS011;5369;49.586;8.646;2023-02-24T08:25:30;40.90;;;21.53;;
10641;SDS011;5369;49.586;8.646;2023-02-24T08:28:00;39.80;;;21.93;;
10641;SDS011;5369;49.586;8.646;2023-02-24T08:30:30;44.73;;;23.17;;
10641;SDS011;5369;49.586;8.646;2023-02-24T08:33:03;42.67;;;22.80;;
10641;SDS011;5369;49.586;8.646;2023-02-24T08:35:30;42.33;;;24.23;;
10641;SDS011;5369;49.586;8.646;2023-02-24T08:38:20;41.90;;;21.83;;
10641;SDS011;5369;49.586;8.646;2023-02-24T08:40:47;40.10;;;21.60;;
10641;SDS011;5369;49.586;8.646;2023-02-24T08:43:26;39.63;;;21.50;;
10641;SDS011;5369;49.586;8.646;2023-02-24T08:46:01;42.47;;;22.60;;
10641;SDS011;5369;49.586;8.646;2023-02-24T08:48:35;42.17;;;22.53;;
10641;SDS011;5369;49.586;8.646;2023-02-24T08:51:23;41.30;;;22.10;;
10641;SDS011;5369;49.586;8.646;2023-02-24T08:53:51;39.37;;;21.67;;
10641;SDS011;5369;49.586;8.646;2023-02-24T08:56:18;41.40;;;22.80;;
10641;SDS011;5369;49.586;8.646;2023-02-24T08:58:48;38.63;;;21.33;;
10641;SDS011;5369;49.586;8.646;2023-02-24T09:01:16;39.77;;;21.73;;
10641;SDS011;5369;49.586;8.646;2023-02-24T09:03:46;41.00;;;22.07;;
10641;SDS011;5369;49.586;8.646;2023-02-24T09:06:14;38.17;;;22.07;;
10641;SDS011;5369;49.586;8.646;2023-02-24T09:08:41;38.27;;;22.00;;
10641;SDS011;5369;49.586;8.646;2023-02-24T09:11:09;40.47;;;23.57;;
10641;SDS011;5369;49.586;8.646;2023-02-24T09:13:41;39.13;;;22.43;;
10641;SDS011;5369;49.586;8.646;2023-02-24T09:16:19;42.93;;;23.43;;
10641;SDS011;5369;49.586;8.646;2023-02-24T09:18:50;40.97;;;23.77;;
10641;SDS011;5369;49.586;8.646;2023-02-24T09:21:36;39.17;;;22.63;;
10641;SDS011;5369;49.586;8.646;2023-02-24T09:24:11;36.07;;;21.17;;
10641;SDS011;5369;49.586;8.646;2023-02-24T09:26:38;41.40;;;24.27;;
10641;SDS011;5369;49.586;8.646;2023-02-24T09:29:13;41.70;;;24.17;;
10641;SDS011;5369;49.586;8.646;2023-02-24T09:32:02;38.73;;;22.53;;
10641;SDS011;5369;49.586;8.646;2023-02-24T09:34:30;37.03;;;21.67;;
10641;SDS011;5369;49.586;8.646;2023-02-24T09:36:56;36.13;;;21.23;;
10641;SDS011;5369;49.586;8.646;2023-02-24T09:39:29;38.80;;;22.10;;
10641;SDS011;5369;49.586;8.646;2023-02-24T09:42:15;36.03;;;21.67;;
10641;SDS011;5369;49.586;8.646;2023-02-24T09:44:48;36.23;;;22.07;;
10641;SDS011;5369;49.586;8.646;2023-02-24T09:50:22;37.17;;;22.27;;
10641;SDS011;5369;49.586;8.646;2023-02-24T09:52:58;38.00;;;21.80;;
10641;SDS011;5369;49.586;8.646;2023-02-24T09:55:48;35.87;;;21.13;;
10641;SDS011;5369;49.586;8.646;2023-02-24T10:06:30;35.83;;;21.80;;
10641;SDS011;5369;49.586;8.646;2023-02-24T10:11:39;35.33;;;21.07;;
10641;SDS011;5369;49.586;8.646;2023-02-24T10:14:19;35.67;;;20.53;;
10641;SDS011;5369;49.586;8.646;2023-02-24T10:16:46;41.73;;;23.33;;
10641;SDS011;5369;49.586;8.646;2023-02-24T10:19:34;37.27;;;22.10;;
10641;SDS011;5369;49.586;8.646;2023-02-24T10:24:35;37.03;;;22.27;;
10641;SDS011;5369;49.586;8.646;2023-02-24T10:27:17;39.27;;;23.27;;
10641;SDS011;5369;49.586;8.646;2023-02-24T10:29:58;38.60;;;21.03;;
10641;SDS011;5369;49.586;8.646;2023-02-24T10:35:15;37.20;;;21.53;;
10641;SDS011;5369;49.586;8.646;2023-02-24T10:37:42;36.70;;;21.77;;
10641;SDS011;5369;49.586;8.646;2023-02-24T10:40:08;35.43;;;22.03;;
10641;SDS011;5369;49.586;8.646;2023-02-24T10:42:38;35.77;;;21.00;;
10641;SDS011;5369;49.586;8.646;2023-02-24T10:47:38;31.73;;;19.50;;
10641;SDS011;5369;49.586;8.646;2023-02-24T10:50:28;35.50;;;21.37;;
10641;SDS011;5369;49.586;8.646;2023-02-24T10:53:01;35.77;;;21.57;;
10641;SDS011;5369;49.586;8.646;2023-02-24T10:58:27;36.07;;;20.77;;
10641;SDS011;5369;49.586;8.646;2023-02-24T11:01:30;35.47;;;20.70;;
10641;SDS011;5369;49.586;8.646;2023-02-24T11:04:20;36.93;;;22.30;;
10641;SDS011;5369;49.586;8.646;2023-02-24T11:07:09;35.37;;;20.07;;
10641;SDS011;5369;49.586;8.646;2023-02-24T11:09:36;33.23;;;19.83;;
10641;SDS011;5369;49.586;8.646;2023-02-24T11:12:20;32.03;;;19.83;;
10641;SDS011;5369;49.586;8.646;2023-02-24T11:15:28;31.93;;;20.20;;
10641;SDS011;5369;49.586;8.646;2023-02-24T11:18:21;33.43;;;20.13;;
10641;SDS011;5369;49.586;8.646;2023-02-24T11:20:50;35.90;;;21.47;;
10641;SDS011;5369;49.586;8.646;2023-02-24T11:23:18;36.87;;;21.30;;
10641;SDS011;5369;49.586;8.646;2023-02-24T11:25:48;34.03;;;19.73;;
10641;SDS011;5369;49.586;8.646;2023-02-24T11:30:51;32.50;;;19.13;;
10641;SDS011;5369;49.586;8.646;2023-02-24T11:33:31;33.67;;;19.43;;
10641;SDS011;5369;49.586;8.646;2023-02-24T11:36:08;30.93;;;19.13;;
10641;SDS011;5369;49.586;8.646;2023-02-24T11:38:41;34.40;;;19.83;;
10641;SDS011;5369;49.586;8.646;2023-02-24T11:41:16;32.97;;;20.60;;
10641;SDS011;5369;49.586;8.646;2023-02-24T11:43:45;35.97;;;21.03;;
10641;SDS011;5369;49.586;8.646;2023-02-24T11:46:16;31.43;;;19.20;;
10641;SDS011;5369;49.586;8.646;2023-02-24T11:48:45;29.90;;;18.17;;
10641;SDS011;5369;49.586;8.646;2023-02-24T11:51:13;27.63;;;16.97;;
10641;SDS011;5369;49.586;8.646;2023-02-24T11:56:09;33.20;;;20.43;;
10641;SDS011;5369;49.586;8.646;2023-02-24T11:58:41;29.13;;;17.60;;
10641;SDS011;5369;49.586;8.646;2023-02-24T12:03:51;31.63;;;19.07;;
10641;SDS011;5369;49.586;8.646;2023-02-24T12:06:52;34.00;;;19.77;;
10641;SDS011;5369;49.586;8.646;2023-02-24T12:09:15;34.67;;;18.63;;
10641;SDS011;5369;49.586;8.646;2023-02-24T12:11:48;31.97;;;18.33;;
10641;SDS011;5369;49.586;8.646;2023-02-24T12:14:19;37.63;;;20.50;;
10641;SDS011;5369;49.586;8.646;2023-02-24T12:16:47;37.03;;;20.37;;
10641;SDS011;5369;49.586;8.646;2023-02-24T12:19:27;36.33;;;19.80;;
10641;SDS011;5369;49.586;8.646;2023-02-24T12:21:57;36.10;;;20.77;;
10641;SDS011;5369;49.586;8.646;2023-02-24T12:24:27;35.20;;;19.97;;
10641;SDS011;5369;49.586;8.646;2023-02-24T12:26:58;37.30;;;21.50;;
10641;SDS011;5369;49.586;8.646;2023-02-24T12:29:30;36.83;;;20.60;;
10641;SDS011;5369;49.586;8.646;2023-02-24T12:32:12;33.70;;;19.30;;
10641;SDS011;5369;49.586;8.646;2023-02-24T12:37:27;31.87;;;19.37;;
10641;SDS011;5369;49.586;8.646;2023-02-24T12:40:03;38.37;;;20.83;;
10641;SDS011;5369;49.586;8.646;2023-02-24T12:50:33;30.87;;;18.47;;
10641;SDS011;5369;49.586;8.646;2023-02-24T12:53:38;34.10;;;19.33;;
10641;SDS011;5369;49.586;8.646;2023-02-24T12:58:24;34.20;;;19.93;;
10641;SDS011;5369;49.586;8.646;2023-02-24T13:01:00;30.93;;;18.47;;
10641;SDS011;5369;49.586;8.646;2023-02-24T13:03:38;33.20;;;19.07;;
10641;SDS011;5369;49.586;8.646;2023-02-24T13:08:44;30.90;;;17.60;;
10641;SDS011;5369;49.586;8.646;2023-02-24T13:14:09;27.87;;;17.27;;
10641;SDS011;5369;49.586;8.646;2023-02-24T13:16:36;24.60;;;15.47;;
10641;SDS011;5369;49.586;8.646;2023-02-24T13:19:15;28.67;;;15.67;;
10641;SDS011;5369;49.586;8.646;2023-02-24T13:21:44;26.37;;;15.20;;
10641;SDS011;5369;49.586;8.646;2023-02-24T13:24:20;24.67;;;15.10;;
10641;SDS011;5369;49.586;8.646;2023-02-24T13:26:46;23.30;;;14.87;;
10641;SDS011;5369;49.586;8.646;2023-02-24T13:29:13;22.57;;;14.23;;
10641;SDS011;5369;49.586;8.646;2023-02-24T13:31:43;24.80;;;15.17;;
10641;SDS011;5369;49.586;8.646;2023-02-24T13:34:13;23.13;;;13.97;;
10641;SDS011;5369;49.586;8.646;2023-02-24T13:36:46;22.80;;;14.33;;
10641;SDS011;5369;49.586;8.646;2023-02-24T13:42:31;28.27;;;14.43;;
10641;SDS011;5369;49.586;8.646;2023-02-24T13:44:51;22.40;;;13.30;;
10641;SDS011;5369;49.586;8.646;2023-02-24T13:47:34;21.27;;;12.83;;
10641;SDS011;5369;49.586;8.646;2023-02-24T13:52:50;22.97;;;13.20;;
10641;SDS011;5369;49.586;8.646;2023-02-24T13:55:22;21.77;;;12.63;;
10641;SDS011;5369;49.586;8.646;2023-02-24T13:57:55;18.97;;;12.50;;
10641;SDS011;5369;49.586;8.646;2023-02-24T14:00:29;18.87;;;11.13;;
10641;SDS011;5369;49.586;8.646;2023-02-24T14:02:59;19.40;;;11.50;;
10641;SDS011;5369;49.586;8.646;2023-02-24T14:05:30;16.50;;;10.53;;
10641;SDS011;5369;49.586;8.646;2023-02-24T14:07:58;17.33;;;11.23;;
10641;SDS011;5369;49.586;8.646;2023-02-24T14:10:25;20.23;;;10.20;;
10641;SDS011;5369;49.586;8.646;2023-02-24T14:13:34;18.43;;;10.53;;
10641;SDS011;5369;49.586;8.646;2023-02-24T14:15:42;15.87;;;10.20;;
10641;SDS011;5369;49.586;8.646;2023-02-24T14:18:15;16.53;;;9.93;;
10641;SDS011;5369;49.586;8.646;2023-02-24T14:20:42;16.47;;;9.77;;
10641;SDS011;5369;49.586;8.646;2023-02-24T14:23:20;16.40;;;9.33;;
10641;SDS011;5369;49.586;8.646;2023-02-24T14:25:47;15.97;;;9.17;;
10641;SDS011;5369;49.586;8.646;2023-02-24T14:28:18;16.40;;;9.43;;
10641;SDS011;5369;49.586;8.646;2023-02-24T14:30:50;16.67;;;10.60;;
10641;SDS011;5369;49.586;8.646;2023-02-24T14:33:22;15.47;;;9.13;;
10641;SDS011;5369;49.586;8.646;2023-02-24T14:35:50;15.20;;;9.17;;
10641;SDS011;5369;49.586;8.646;2023-02-24T14:40:54;14.97;;;7.87;;
10641;SDS011;5369;49.586;8.646;2023-02-24T14:43:20;13.77;;;8.67;;
10641;SDS011;5369;49.586;8.646;2023-02-24T14:45:50;13.60;;;8.17;;
10641;SDS011;5369;49.586;8.646;2023-02-24T14:48:22;12.63;;;7.40;;
10641;SDS011;5369;49.586;8.646;2023-02-24T14:50:48;12.00;;;8.03;;
10641;SDS011;5369;49.586;8.646;2023-02-24T14:53:15;11.73;;;7.17;;
10641;SDS011;5369;49.586;8.646;2023-02-24T14:55:44;8.40;;;6.40;;
10641;SDS011;5369;49.586;8.646;2023-02-24T15:05:49;9.00;;;5.83;;
10641;SDS011;5369;49.586;8.646;2023-02-24T15:11:10;10.17;;;6.00;;
10641;SDS011;5369;49.586;8.646;2023-02-24T15:13:47;7.70;;;5.60;;
10641;SDS011;5369;49.586;8.646;2023-02-24T15:18:52;7.90;;;5.50;;
10641;SDS011;5369;49.586;8.646;2023-02-24T15:21:19;8.33;;;5.20;;
10641;SDS011;5369;49.586;8.646;2023-02-24T15:23:46;7.67;;;5.20;;
10641;SDS011;5369;49.586;8.646;2023-02-24T15:26:23;7.93;;;6.10;;
10641;SDS011;5369;49.586;8.646;2023-02-24T15:28:55;8.40;;;5.70;;
10641;SDS011;5369;49.586;8.646;2023-02-24T15:31:22;8.00;;;5.77;;
10641;SDS011;5369;49.586;8.646;2023-02-24T15:33:55;8.27;;;6.13;;
10641;SDS011;5369;49.586;8.646;2023-02-24T15:36:24;9.07;;;5.50;;
10641;SDS011;5369;49.586;8.646;2023-02-24T15:38:52;9.50;;;5.80;;
10641;SDS011;5369;49.586;8.646;2023-02-24T15:41:18;8.20;;;5.87;;
10641;SDS011;5369;49.586;8.646;2023-02-24T15:43:46;8.07;;;5.70;;
10641;SDS011;5369;49.586;8.646;2023-02-24T15:48:41;7.90;;;5.70;;
10641;SDS011;5369;49.586;8.646;2023-02-24T15:51:09;7.87;;;5.13;;
10641;SDS011;5369;49.586;8.646;2023-02-24T15:53:38;8.87;;;5.60;;
10641;SDS011;5369;49.586;8.646;2023-02-24T15:56:04;8.13;;;5.30;;
10641;SDS011;5369;49.586;8.646;2023-02-24T15:58:31;10.77;;;5.93;;
10641;SDS011;5369;49.586;8.646;2023-02-24T16:00:59;9.80;;;6.13;;
10641;SDS011;5369;49.586;8.646;2023-02-24T16:03:25;8.60;;;5.77;;
10641;SDS011;5369;49.586;8.646;2023-02-24T16:05:51;9.53;;;5.83;;
10641;SDS011;5369;49.586;8.646;2023-02-24T16:08:18;10.37;;;5.77;;
10641;SDS011;5369;49.586;8.646;2023-02-24T16:10:44;8.90;;;5.57;;
10641;SDS011;5369;49.586;8.646;2023-02-24T16:13:16;7.40;;;5.33;;
10641;SDS011;5369;49.586;8.646;2023-02-24T16:15:43;7.77;;;5.53;;
10641;SDS011;5369;49.586;8.646;2023-02-24T16:18:11;8.40;;;5.90;;
10641;SDS011;5369;49.586;8.646;2023-02-24T16:20:42;8.43;;;5.13;;
10641;SDS011;5369;49.586;8.646;2023-02-24T16:23:09;9.93;;;6.23;;
10641;SDS011;5369;49.586;8.646;2023-02-24T16:25:37;8.97;;;6.33;;
10641;SDS011;5369;49.586;8.646;2023-02-24T16:28:04;12.10;;;6.10;;
10641;SDS011;5369;49.586;8.646;2023-02-24T16:30:31;10.17;;;6.37;;
10641;SDS011;5369;49.586;8.646;2023-02-24T16:32:59;9.63;;;6.40;;
10641;SDS011;5369;49.586;8.646;2023-02-24T16:35:26;9.53;;;7.00;;
10641;SDS011;5369;49.586;8.646;2023-02-24T16:37:53;10.83;;;7.00;;
10641;SDS011;5369;49.586;8.646;2023-02-24T16:40:24;11.97;;;6.63;;
10641;SDS011;5369;49.586;8.646;2023-02-24T16:42:52;12.30;;;7.73;;
10641;SDS011;5369;49.586;8.646;2023-02-24T16:45:18;11.37;;;7.67;;
10641;SDS011;5369;49.586;8.646;2023-02-24T16:47:46;9.57;;;6.73;;
10641;SDS011;5369;49.586;8.646;2023-02-24T16:50:17;12.80;;;7.93;;
10641;SDS011;5369;49.586;8.646;2023-02-24T16:52:44;10.07;;;6.97;;
10641;SDS011;5369;49.586;8.646;2023-02-24T16:55:11;11.57;;;7.67;;